Time;durP1;ratioP1;P1;durP2;ratioP2;P2;SDS_P1;SDS_P2;PMS_P1;PMS_P2;Temp;Humidity;BMP_temperature;BMP_pressure;BME280_temperature;BME280_humidity;BME280_pressure;Samples;Min_cycle;Max_cycle;Signal;HPM_P1;HPM_P2
2022/12/03 00:00:06;;;;;;;;;;;3.20;99.90;;;;;;8390337;28;20002;-78
2022/12/03 00:04:12;;;;;;;;;;;3.30;99.90;;;;;;8393150;28;20019;-79
2022/12/03 00:08:14;;;;;;;;;;;3.30;99.90;;;;;;8393025;28;20271;-79
2022/12/03 00:12:16;;;;;;;;;;;3.30;99.90;;;;;;8384615;28;19931;-78
2022/12/03 00:16:17;;;;;;;;;;;3.30;99.90;;;;;;8394626;28;19924;-79
2022/12/03 00:20:21;;;;;;;;;;;3.30;99.90;;;;;;8376260;28;19925;-79
2022/12/03 00:24:22;;;;;;;;;;;3.30;99.90;;;;;;8399264;28;19924;-79
2022/12/03 00:28:24;;;;;;;;;;;3.20;99.90;;;;;;8392237;28;20355;-79
2022/12/03 00:32:26;;;;;;;;;;;3.30;99.90;;;;;;8377564;28;20698;-78
2022/12/03 00:36:27;;;;;;;;;;;3.30;99.90;;;;;;8386608;28;20240;-78
2022/12/03 00:40:29;;;;;;;;;;;3.30;99.90;;;;;;8383912;28;20019;-79
2022/12/03 00:44:31;;;;;;;;;;;3.30;99.90;;;;;;8382294;28;19930;-79
2022/12/03 00:48:33;;;;;;;;;;;3.30;99.90;;;;;;8396364;28;19967;-78
2022/12/03 00:52:34;;;;;;;;;;;3.30;99.90;;;;;;8391089;28;20445;-79
2022/12/03 00:56:36;;;;;;;;;;;3.30;99.90;;;;;;8369976;28;19963;-79
2022/12/03 01:00:37;;;;;;;;;;;3.30;99.90;;;;;;8378964;28;19934;-79
2022/12/03 01:04:39;;;;;;;;;;;3.30;99.90;;;;;;8380840;28;19928;-79
2022/12/03 01:08:41;;;;;;;;;;;3.30;99.90;;;;;;8375701;28;20312;-79
2022/12/03 01:12:42;;;;;;;;;;;3.30;99.90;;;;;;8389398;28;19935;-79
2022/12/03 01:16:44;;;;;;;;;;;3.30;99.90;;;;;;8373493;28;20011;-79
2022/12/03 01:20:46;;;;;;;;;;;3.30;99.90;;;;;;8378433;28;20367;-79
2022/12/03 01:24:48;;;;;;;;;;;3.20;99.90;;;;;;8397874;28;19970;-78
2022/12/03 01:28:50;;;;;;;;;;;3.20;99.90;;;;;;8392263;28;20011;-79
2022/12/03 01:32:52;;;;;;;;;;;3.20;99.90;;;;;;8376187;28;20354;-79
2022/12/03 01:36:53;;;;;;;;;;;3.20;99.90;;;;;;8390902;28;19925;-79
2022/12/03 01:40:55;;;;;;;;;;;3.20;99.90;;;;;;8387560;28;19943;-78
2022/12/03 01:44:57;;;;;;;;;;;3.20;99.90;;;;;;8387672;28;19924;-79
2022/12/03 01:48:59;;;;;;;;;;;3.30;99.90;;;;;;8388832;28;19932;-79
2022/12/03 01:53:01;;;;;;;;;;;3.30;99.90;;;;;;8369145;28;19974;-79
2022/12/03 01:57:04;;;;;;;;;;;3.30;99.90;;;;;;8384744;28;19925;-79
2022/12/03 02:16:18;;;;;;;;;;;3.30;99.90;;;;;;8378953;28;19958;-79
2022/12/03 02:20:20;;;;;;;;;;;3.30;99.90;;;;;;8388808;28;19934;-79
2022/12/03 02:24:32;;;;;;;;;;;3.30;99.90;;;;;;8374531;28;20019;-79
2022/12/03 02:28:33;;;;;;;;;;;3.30;99.90;;;;;;8385166;28;21430;-78
2022/12/03 02:32:36;;;;;;;;;;;3.30;99.90;;;;;;8394871;28;19967;-79
2022/12/03 02:36:38;;;;;;;;;;;3.30;99.90;;;;;;8392209;28;20089;-78
2022/12/03 02:40:40;;;;;;;;;;;3.30;99.90;;;;;;8395176;28;20410;-79
2022/12/03 02:44:42;;;;;;;;;;;3.30;99.90;;;;;;8387622;28;20299;-79
2022/12/03 02:48:44;;;;;;;;;;;3.30;99.90;;;;;;8402676;28;20422;-79
2022/12/03 02:52:46;;;;;;;;;;;3.30;99.90;;;;;;8397762;28;20015;-79
2022/12/03 02:56:48;;;;;;;;;;;3.30;99.90;;;;;;8375822;28;19931;-79
2022/12/03 03:00:51;;;;;;;;;;;3.30;99.90;;;;;;8391150;28;19966;-78
2022/12/03 03:04:53;;;;;;;;;;;3.30;99.90;;;;;;8407455;28;19935;-79
2022/12/03 03:08:56;;;;;;;;;;;3.40;99.90;;;;;;8394041;28;19931;-79
2022/12/03 03:12:57;;;;;;;;;;;3.40;99.90;;;;;;8385514;28;20383;-79
2022/12/03 03:16:59;;;;;;;;;;;3.40;99.90;;;;;;8377840;28;20024;-79
2022/12/03 03:21:01;;;;;;;;;;;3.40;99.90;;;;;;8390089;28;20451;-79
2022/12/03 03:25:03;;;;;;;;;;;3.40;99.90;;;;;;8382911;28;20337;-79
2022/12/03 03:29:05;;;;;;;;;;;3.40;99.90;;;;;;8372191;28;19928;-78
2022/12/03 03:33:07;;;;;;;;;;;3.40;99.90;;;;;;8392565;28;19979;-79
2022/12/03 03:37:09;;;;;;;;;;;3.40;99.90;;;;;;8391073;28;20335;-79
2022/12/03 03:51:17;;;;;;;;;;;3.40;99.90;;;;;;8403590;28;20397;-79
2022/12/03 03:55:19;;;;;;;;;;;3.40;99.90;;;;;;8384184;28;19928;-79
2022/12/03 03:59:21;;;;;;;;;;;3.40;99.90;;;;;;8382322;28;20059;-78
2022/12/03 04:03:22;;;;;;;;;;;3.40;99.90;;;;;;8372393;28;19932;-79
2022/12/03 04:07:24;;;;;;;;;;;3.40;99.90;;;;;;8392078;28;19928;-79
2022/12/03 04:15:46;;;;;;;;;;;3.40;99.90;;;;;;8394943;28;19924;-79
2022/12/03 04:19:48;;;;;;;;;;;3.40;99.90;;;;;;8398993;28;19924;-79
2022/12/03 04:23:49;;;;;;;;;;;3.40;99.90;;;;;;8397867;28;19928;-78
2022/12/03 04:36:31;;;;;;;;;;;3.40;99.90;;;;;;8390307;28;20011;-79
2022/12/03 04:44:53;;;;;;;;;;;3.40;99.90;;;;;;8389109;28;20432;-79
2022/12/03 04:48:55;;;;;;;;;;;3.40;99.90;;;;;;8396201;28;19924;-79
2022/12/03 04:52:57;;;;;;;;;;;3.40;99.90;;;;;;8400389;28;19960;-79
2022/12/03 04:56:58;;;;;;;;;;;3.30;99.90;;;;;;8389827;28;19924;-79
2022/12/03 05:01:00;;;;;;;;;;;3.40;99.90;;;;;;8380663;28;20444;-78
2022/12/03 05:05:02;;;;;;;;;;;3.30;99.90;;;;;;8387423;28;19978;-79
2022/12/03 05:09:03;;;;;;;;;;;3.30;99.90;;;;;;8387338;28;19966;-79
2022/12/03 05:13:05;;;;;;;;;;;3.30;99.90;;;;;;8388546;28;19928;-78
2022/12/03 05:17:07;;;;;;;;;;;3.30;99.90;;;;;;8382107;28;19928;-78
2022/12/03 05:21:24;;;;;;;;;;;3.30;99.90;;;;;;8361133;28;20100;-78
2022/12/03 05:25:26;;;;;;;;;;;3.30;99.90;;;;;;8371411;28;19925;-79
2022/12/03 05:29:27;;;;;;;;;;;3.30;99.90;;;;;;8385801;28;20054;-78
2022/12/03 05:33:29;;;;;;;;;;;3.30;99.90;;;;;;8391771;28;20364;-79
2022/12/03 05:37:31;;;;;;;;;;;3.30;99.90;;;;;;8390404;28;20299;-79
2022/12/03 05:45:52;;;;;;;;;;;3.30;99.90;;;;;;8387654;28;20016;-78
2022/12/03 05:49:54;;;;;;;;;;;3.30;99.90;;;;;;8389815;28;20001;-79
2022/12/03 05:53:56;;;;;;;;;;;3.30;99.90;;;;;;8392165;28;19924;-79
2022/12/03 05:57:58;;;;;;;;;;;3.30;99.90;;;;;;8391665;28;20032;-79
2022/12/03 06:01:59;;;;;;;;;;;3.30;99.90;;;;;;8388072;28;19924;-79
2022/12/03 06:06:01;;;;;;;;;;;3.30;99.90;;;;;;8389420;28;20248;-79
2022/12/03 06:10:04;;;;;;;;;;;3.30;99.90;;;;;;8376309;28;19931;-79
2022/12/03 06:14:06;;;;;;;;;;;3.30;99.90;;;;;;8392060;28;20382;-77
2022/12/03 06:18:07;;;;;;;;;;;3.30;99.90;;;;;;8390594;28;19933;-79
2022/12/03 06:22:09;;;;;;;;;;;3.30;99.90;;;;;;8380359;28;19972;-79
2022/12/03 06:26:11;;;;;;;;;;;3.30;99.90;;;;;;8401402;28;19928;-79
2022/12/03 06:30:13;;;;;;;;;;;3.30;99.90;;;;;;8387484;28;19935;-79
2022/12/03 06:34:15;;;;;;;;;;;3.30;99.90;;;;;;8393938;28;20588;-79
2022/12/03 06:38:16;;;;;;;;;;;3.30;99.90;;;;;;8391369;28;20011;-79
2022/12/03 06:42:18;;;;;;;;;;;3.30;99.90;;;;;;8392853;28;19924;-78
2022/12/03 06:46:20;;;;;;;;;;;3.30;99.90;;;;;;8380731;28;19931;-78
2022/12/03 06:50:24;;;;;;;;;;;3.30;99.90;;;;;;8386066;28;20312;-78
2022/12/03 06:54:26;;;;;;;;;;;3.30;99.90;;;;;;8395744;28;19924;-79
2022/12/03 06:58:27;;;;;;;;;;;3.30;99.90;;;;;;8399126;28;19925;-78
2022/12/03 07:02:29;;;;;;;;;;;3.30;99.90;;;;;;8401997;28;19932;-79
2022/12/03 07:06:31;;;;;;;;;;;3.30;99.90;;;;;;8394843;28;20287;-79
2022/12/03 07:10:32;;;;;;;;;;;3.30;99.90;;;;;;8377467;28;20379;-78
2022/12/03 07:14:34;;;;;;;;;;;3.20;99.90;;;;;;8394704;28;20126;-78
2022/12/03 07:18:35;;;;;;;;;;;3.20;99.90;;;;;;8398754;28;19982;-79
2022/12/03 07:22:37;;;;;;;;;;;3.20;99.90;;;;;;8398694;28;21629;-78
2022/12/03 07:26:39;;;;;;;;;;;3.20;99.90;;;;;;8405120;28;20340;-79
2022/12/03 07:30:40;;;;;;;;;;;3.20;99.90;;;;;;8389836;28;19954;-79
2022/12/03 07:34:42;;;;;;;;;;;3.20;99.90;;;;;;8394351;28;19924;-79
2022/12/03 07:38:43;;;;;;;;;;;3.20;99.90;;;;;;8397221;28;19924;-79
2022/12/03 07:42:45;;;;;;;;;;;3.20;99.90;;;;;;8402877;28;19928;-79
2022/12/03 07:46:47;;;;;;;;;;;3.20;99.90;;;;;;8385870;28;19924;-79
2022/12/03 07:50:48;;;;;;;;;;;3.20;99.90;;;;;;8394916;28;19934;-79
2022/12/03 07:54:50;;;;;;;;;;;3.20;99.90;;;;;;8393283;28;19930;-79
2022/12/03 07:58:52;;;;;;;;;;;3.20;99.90;;;;;;8404518;28;19928;-79
2022/12/03 08:02:54;;;;;;;;;;;3.20;99.90;;;;;;8397517;28;19982;-78
2022/12/03 08:06:55;;;;;;;;;;;3.20;99.90;;;;;;8379759;28;19943;-79
2022/12/03 08:10:57;;;;;;;;;;;3.20;99.90;;;;;;8402766;28;20014;-79
2022/12/03 08:14:58;;;;;;;;;;;3.20;99.90;;;;;;8399472;28;20288;-79
2022/12/03 08:19:01;;;;;;;;;;;3.20;99.90;;;;;;8398286;28;19928;-78
2022/12/03 08:23:05;;;;;;;;;;;3.20;99.90;;;;;;8396379;28;19924;-78
2022/12/03 08:27:15;;;;;;;;;;;3.10;99.90;;;;;;8400840;28;19931;-79
2022/12/03 08:31:22;;;;;;;;;;;3.10;99.90;;;;;;8391785;28;19924;-79
2022/12/03 08:35:30;;;;;;;;;;;3.10;99.90;;;;;;8393446;28;19977;-79
2022/12/03 08:39:33;;;;;;;;;;;3.10;99.90;;;;;;8399944;28;20398;-79
2022/12/03 08:43:40;;;;;;;;;;;3.10;99.90;;;;;;8395392;28;19974;-78
2022/12/03 08:47:42;;;;;;;;;;;3.10;99.90;;;;;;8383378;28;19932;-78
2022/12/03 08:51:44;;;;;;;;;;;3.10;99.90;;;;;;8395324;28;19924;-79
2022/12/03 08:55:46;;;;;;;;;;;3.10;99.90;;;;;;8389992;28;19928;-79
2022/12/03 08:59:49;;;;;;;;;;;3.20;99.90;;;;;;8390968;28;19924;-78
2022/12/03 09:03:53;;;;;;;;;;;3.20;99.90;;;;;;8375323;28;20023;-78
2022/12/03 09:07:55;;;;;;;;;;;3.20;99.90;;;;;;8399181;28;19924;-78
2022/12/03 09:12:07;;;;;;;;;;;3.20;99.90;;;;;;8394343;28;19978;-79
2022/12/03 09:16:10;;;;;;;;;;;3.20;99.90;;;;;;8396689;28;19935;-79
2022/12/03 09:20:12;;;;;;;;;;;3.10;99.90;;;;;;8395651;28;19958;-78
2022/12/03 09:24:13;;;;;;;;;;;3.10;99.90;;;;;;8394532;28;20376;-79
2022/12/03 09:28:15;;;;;;;;;;;3.10;99.90;;;;;;8382500;28;19956;-79
2022/12/03 09:32:17;;;;;;;;;;;3.10;99.90;;;;;;8395599;28;19928;-79
2022/12/03 09:36:19;;;;;;;;;;;3.00;99.90;;;;;;8381407;28;19924;-79
2022/12/03 09:40:21;;;;;;;;;;;3.00;99.90;;;;;;8375099;28;19928;-79
2022/12/03 09:44:23;;;;;;;;;;;3.00;99.90;;;;;;8390319;28;19998;-78
2022/12/03 09:48:25;;;;;;;;;;;3.00;99.90;;;;;;8400144;28;20327;-79
2022/12/03 09:52:27;;;;;;;;;;;3.00;99.90;;;;;;8400529;28;19925;-78
2022/12/03 09:56:29;;;;;;;;;;;3.00;99.90;;;;;;8393976;28;20408;-79
2022/12/03 10:00:31;;;;;;;;;;;3.00;99.90;;;;;;8395065;28;20129;-78
2022/12/03 10:04:33;;;;;;;;;;;3.00;99.90;;;;;;8397346;28;19931;-79
2022/12/03 10:08:34;;;;;;;;;;;3.00;99.90;;;;;;8398438;28;20337;-78
2022/12/03 10:12:36;;;;;;;;;;;3.00;99.90;;;;;;8393480;28;20344;-78
2022/12/03 10:16:39;;;;;;;;;;;2.90;99.90;;;;;;8399964;28;19964;-78
2022/12/03 10:20:40;;;;;;;;;;;3.00;99.90;;;;;;8394858;28;19932;-79
2022/12/03 10:24:43;;;;;;;;;;;3.00;99.90;;;;;;8389362;28;19928;-78
2022/12/03 10:28:46;;;;;;;;;;;3.00;99.90;;;;;;8396175;28;19928;-78
2022/12/03 10:32:49;;;;;;;;;;;3.00;99.90;;;;;;8369784;28;21344;-78
2022/12/03 10:37:07;;;;;;;;;;;3.00;99.90;;;;;;8365954;28;19928;-78
2022/12/03 10:41:26;;;;;;;;;;;3.00;99.90;;;;;;8385331;28;19940;-78
2022/12/03 10:45:27;;;;;;;;;;;2.90;99.90;;;;;;8391576;28;20027;-79
2022/12/03 10:49:29;;;;;;;;;;;2.90;99.90;;;;;;8402750;28;20294;-79
2022/12/03 10:53:32;;;;;;;;;;;2.90;99.90;;;;;;8367897;28;19924;-78
2022/12/03 10:57:34;;;;;;;;;;;2.90;99.90;;;;;;8350084;28;19975;-78
2022/12/03 11:01:35;;;;;;;;;;;2.90;99.90;;;;;;8370117;28;19935;-79
2022/12/03 11:05:37;;;;;;;;;;;2.90;99.90;;;;;;8368278;28;19932;-79
2022/12/03 11:09:41;;;;;;;;;;;2.90;99.90;;;;;;8371959;28;19924;-78
2022/12/03 11:13:48;;;;;;;;;;;2.80;99.90;;;;;;8369662;28;19924;-78
2022/12/03 11:17:51;;;;;;;;;;;2.80;99.90;;;;;;8347956;28;19924;-78
2022/12/03 11:22:04;;;;;;;;;;;2.80;99.90;;;;;;8369638;28;19986;-78
2022/12/03 11:26:06;;;;;;;;;;;2.90;99.90;;;;;;8362055;28;19925;-78
2022/12/03 11:30:09;;;;;;;;;;;2.90;99.90;;;;;;8369508;28;20351;-78
2022/12/03 11:34:16;;;;;;;;;;;2.90;99.90;;;;;;8361126;28;19929;-78
2022/12/03 11:38:36;;;;;;;;;;;2.90;99.90;;;;;;8363450;28;19925;-79
2022/12/03 11:42:39;;;;;;;;;;;2.90;99.90;;;;;;8358772;28;20355;-79
2022/12/03 11:46:42;;;;;;;;;;;2.90;99.90;;;;;;8364562;28;19929;-79
2022/12/03 11:50:53;;;;;;;;;;;2.90;99.90;;;;;;8367650;28;20024;-78
2022/12/03 11:55:04;;;;;;;;;;;2.80;99.90;;;;;;8370886;28;19967;-78
2022/12/03 11:59:11;;;;;;;;;;;2.80;99.90;;;;;;8374833;28;19936;-78
2022/12/03 12:03:20;;;;;;;;;;;2.90;99.90;;;;;;8373391;28;20067;-78
2022/12/03 12:07:32;;;;;;;;;;;2.90;99.90;;;;;;8375044;28;19940;-78
2022/12/03 12:11:40;;;;;;;;;;;2.90;99.90;;;;;;8380774;28;19973;-78
2022/12/03 12:15:42;;;;;;;;;;;2.90;99.90;;;;;;8375721;28;19929;-78
2022/12/03 12:19:44;;;;;;;;;;;2.90;99.90;;;;;;8375602;28;20033;-78
2022/12/03 12:23:50;;;;;;;;;;;2.90;99.90;;;;;;8368644;28;19925;-78
2022/12/03 12:27:53;;;;;;;;;;;2.90;99.90;;;;;;8363607;28;20324;-78
2022/12/03 12:32:07;;;;;;;;;;;2.80;99.90;;;;;;8366044;28;19935;-78
2022/12/03 12:36:09;;;;;;;;;;;2.80;99.90;;;;;;8362540;28;19974;-78
2022/12/03 12:40:14;;;;;;;;;;;2.80;99.90;;;;;;8344897;28;19968;-78
2022/12/03 12:44:17;;;;;;;;;;;2.80;99.90;;;;;;8363008;28;20014;-78
2022/12/03 12:48:23;;;;;;;;;;;2.80;99.90;;;;;;8372163;28;20269;-78
2022/12/03 12:52:26;;;;;;;;;;;2.80;99.90;;;;;;8358878;28;19925;-78
2022/12/03 12:56:29;;;;;;;;;;;2.80;99.90;;;;;;8364086;28;20027;-78
2022/12/03 13:00:30;;;;;;;;;;;2.80;99.90;;;;;;8362590;28;19960;-78
2022/12/03 13:04:38;;;;;;;;;;;2.80;99.90;;;;;;8359484;28;19951;-78
2022/12/03 13:08:43;;;;;;;;;;;2.80;99.90;;;;;;8366141;28;20687;-77
2022/12/03 13:12:45;;;;;;;;;;;2.80;99.90;;;;;;8362385;28;20401;-78
2022/12/03 13:16:48;;;;;;;;;;;2.80;99.90;;;;;;8350619;28;19928;-77
2022/12/03 13:20:49;;;;;;;;;;;2.80;99.90;;;;;;8352244;28;19929;-78
2022/12/03 13:24:53;;;;;;;;;;;2.80;99.90;;;;;;8372192;28;20399;-78
2022/12/03 13:28:54;;;;;;;;;;;2.80;99.90;;;;;;8367545;28;19975;-79
2022/12/03 13:32:56;;;;;;;;;;;2.80;99.90;;;;;;8366556;28;19932;-78
2022/12/03 13:36:59;;;;;;;;;;;2.80;99.90;;;;;;8375195;28;19928;-78
2022/12/03 13:41:01;;;;;;;;;;;2.70;99.90;;;;;;8358889;28;19934;-79
2022/12/03 13:45:15;;;;;;;;;;;2.80;99.90;;;;;;8365409;28;19963;-78
2022/12/03 13:49:21;;;;;;;;;;;2.70;99.90;;;;;;8363594;28;19925;-78
2022/12/03 13:53:27;;;;;;;;;;;2.70;99.90;;;;;;8357601;28;19933;-78
2022/12/03 13:57:29;;;;;;;;;;;2.70;99.90;;;;;;8361709;28;19925;-79
2022/12/03 14:01:31;;;;;;;;;;;2.70;99.90;;;;;;8362316;28;19975;-78
2022/12/03 14:05:32;;;;;;;;;;;2.70;99.90;;;;;;8349389;28;19936;-79
2022/12/03 14:09:34;;;;;;;;;;;2.70;99.90;;;;;;8367088;28;20210;-78
2022/12/03 14:13:36;;;;;;;;;;;2.70;99.90;;;;;;8357419;28;19924;-78
2022/12/03 14:17:37;;;;;;;;;;;2.70;99.90;;;;;;8344887;28;19935;-78
2022/12/03 14:21:39;;;;;;;;;;;2.70;99.90;;;;;;8362715;28;20032;-78
2022/12/03 14:25:42;;;;;;;;;;;2.60;99.90;;;;;;8365536;28;19933;-78
2022/12/03 14:29:44;;;;;;;;;;;2.70;99.90;;;;;;8363957;28;20330;-78
2022/12/03 14:33:46;;;;;;;;;;;2.70;99.90;;;;;;8369140;28;19925;-78
2022/12/03 14:37:47;;;;;;;;;;;2.70;99.90;;;;;;8349308;28;20012;-78
2022/12/03 14:46:09;;;;;;;;;;;2.60;99.90;;;;;;8367235;28;19931;-78
2022/12/03 14:50:13;;;;;;;;;;;2.50;99.90;;;;;;8380291;28;19982;-78
2022/12/03 14:54:15;;;;;;;;;;;2.50;99.90;;;;;;8345846;28;19997;-78
2022/12/03 14:58:16;;;;;;;;;;;2.50;99.90;;;;;;8363283;28;20374;-78
2022/12/03 15:02:18;;;;;;;;;;;2.40;99.90;;;;;;8345547;28;20403;-78
2022/12/03 15:06:20;;;;;;;;;;;2.40;99.90;;;;;;8376860;28;19932;-78
2022/12/03 15:10:21;;;;;;;;;;;2.40;99.90;;;;;;8368235;28;19932;-78
2022/12/03 15:14:23;;;;;;;;;;;2.40;99.90;;;;;;8365610;28;19936;-78
2022/12/03 15:18:25;;;;;;;;;;;2.40;99.90;;;;;;8366801;28;19968;-78
2022/12/03 15:22:26;;;;;;;;;;;2.40;99.90;;;;;;8365336;28;20395;-78
2022/12/03 15:26:28;;;;;;;;;;;2.40;99.90;;;;;;8370756;28;19944;-78
2022/12/03 15:30:31;;;;;;;;;;;2.40;99.90;;;;;;8365576;28;19931;-78
2022/12/03 15:34:32;;;;;;;;;;;2.40;99.90;;;;;;8345462;28;20395;-78
2022/12/03 15:38:34;;;;;;;;;;;2.40;99.90;;;;;;8362186;28;20188;-78
2022/12/03 15:42:36;;;;;;;;;;;2.40;99.90;;;;;;8368905;28;19925;-78
2022/12/03 15:46:37;;;;;;;;;;;2.30;99.90;;;;;;8364240;28;19939;-78
2022/12/03 15:50:39;;;;;;;;;;;2.40;99.90;;;;;;8370349;28;20373;-79
2022/12/03 15:54:41;;;;;;;;;;;2.40;99.90;;;;;;8368598;28;19925;-78
2022/12/03 15:58:42;;;;;;;;;;;2.30;99.90;;;;;;8366582;28;20383;-79
2022/12/03 16:12:51;;;;;;;;;;;2.30;99.90;;;;;;8366501;28;19919;-78
2022/12/03 16:17:19;;;;;;;;;;;2.30;99.90;;;;;;8336076;28;19940;-78
2022/12/03 16:21:21;;;;;;;;;;;2.30;99.90;;;;;;8332795;28;19935;-78
2022/12/03 16:25:27;;;;;;;;;;;2.30;99.90;;;;;;8337545;28;19936;-78
2022/12/03 16:29:29;;;;;;;;;;;2.30;99.90;;;;;;8331344;28;19961;-78
2022/12/03 16:33:30;;;;;;;;;;;2.30;99.90;;;;;;8331334;28;19931;-78
2022/12/03 16:37:32;;;;;;;;;;;2.30;99.90;;;;;;8332434;28;19925;-78
2022/12/03 16:41:34;;;;;;;;;;;2.20;99.90;;;;;;8334692;28;19940;-78
2022/12/03 16:49:43;;;;;;;;;;;2.20;99.90;;;;;;8332079;28;19936;-78
2022/12/03 16:53:45;;;;;;;;;;;2.10;99.90;;;;;;8329394;28;19925;-78
2022/12/03 16:57:46;;;;;;;;;;;2.10;99.90;;;;;;8329037;28;19968;-79
2022/12/03 17:01:48;;;;;;;;;;;2.20;99.90;;;;;;8332564;28;19947;-78
2022/12/03 17:05:50;;;;;;;;;;;2.10;99.90;;;;;;8336830;28;19931;-78
2022/12/03 17:09:51;;;;;;;;;;;2.10;99.90;;;;;;8339336;28;19929;-78
2022/12/03 17:18:56;;;;;;;;;;;2.10;99.90;;;;;;8357349;28;19923;-78
2022/12/03 17:22:58;;;;;;;;;;;2.10;99.90;;;;;;8377090;28;19936;-78
2022/12/03 17:27:00;;;;;;;;;;;2.10;99.90;;;;;;8366059;28;19929;-79
2022/12/03 17:31:02;;;;;;;;;;;2.10;99.90;;;;;;8347273;28;19928;-78
2022/12/03 17:35:04;;;;;;;;;;;2.10;99.90;;;;;;8364705;28;19929;-78
2022/12/03 17:39:05;;;;;;;;;;;2.00;99.90;;;;;;8365542;28;19924;-78
2022/12/03 17:43:07;;;;;;;;;;;2.00;99.90;;;;;;8364449;28;20031;-78
2022/12/03 17:47:08;;;;;;;;;;;2.00;99.90;;;;;;8363937;28;19928;-78
2022/12/03 17:51:10;;;;;;;;;;;2.10;99.90;;;;;;8344542;28;19954;-78
2022/12/03 17:55:12;;;;;;;;;;;2.00;99.90;;;;;;8359966;28;19928;-78
2022/12/03 17:59:24;;;;;;;;;;;2.10;99.90;;;;;;8374679;28;20387;-78
2022/12/03 18:03:25;;;;;;;;;;;2.00;99.90;;;;;;8364197;28;20592;-78
2022/12/03 18:07:27;;;;;;;;;;;2.10;99.90;;;;;;8349059;28;19932;-78
2022/12/03 18:11:29;;;;;;;;;;;2.10;99.90;;;;;;8377492;28;19929;-78
2022/12/03 18:15:31;;;;;;;;;;;2.10;99.90;;;;;;8361346;28;19967;-78
2022/12/03 18:19:32;;;;;;;;;;;2.00;99.90;;;;;;8375242;28;19940;-78
2022/12/03 18:23:34;;;;;;;;;;;2.00;99.90;;;;;;8380203;28;19933;-78
2022/12/03 18:27:36;;;;;;;;;;;2.00;99.90;;;;;;8375941;28;19929;-79
2022/12/03 18:31:38;;;;;;;;;;;2.00;99.90;;;;;;8367519;28;20458;-78
2022/12/03 18:35:43;;;;;;;;;;;2.00;99.90;;;;;;8372064;28;19960;-78
2022/12/03 18:39:45;;;;;;;;;;;2.00;99.90;;;;;;8369107;28;20356;-78
2022/12/03 18:43:47;;;;;;;;;;;1.90;99.90;;;;;;8369104;28;20727;-78
2022/12/03 18:47:49;;;;;;;;;;;1.90;99.90;;;;;;8360130;28;19935;-78
2022/12/03 18:51:50;;;;;;;;;;;1.90;99.90;;;;;;8365582;28;19924;-78
2022/12/03 18:55:59;;;;;;;;;;;1.80;99.90;;;;;;8374922;28;20296;-78
2022/12/03 19:00:00;;;;;;;;;;;1.80;99.90;;;;;;8347969;28;19929;-78
2022/12/03 19:04:02;;;;;;;;;;;1.80;99.90;;;;;;8353445;28;19925;-79
2022/12/03 19:08:12;;;;;;;;;;;1.80;99.90;;;;;;8365873;28;20256;-78
2022/12/03 19:12:15;;;;;;;;;;;1.70;99.90;;;;;;8367158;28;19928;-78
2022/12/03 19:16:17;;;;;;;;;;;1.70;99.90;;;;;;8386222;28;19946;-78
2022/12/03 19:20:19;;;;;;;;;;;1.80;99.90;;;;;;8370661;28;20372;-78
2022/12/03 19:24:20;;;;;;;;;;;1.80;99.90;;;;;;8367261;28;19936;-78
2022/12/03 19:28:25;;;;;;;;;;;1.80;99.90;;;;;;8369222;28;19939;-78
2022/12/03 19:32:27;;;;;;;;;;;1.80;99.90;;;;;;8368188;28;19932;-79
2022/12/03 19:36:30;;;;;;;;;;;1.70;99.90;;;;;;8363480;28;19931;-78
2022/12/03 19:40:34;;;;;;;;;;;1.70;99.90;;;;;;8349092;28;20043;-78
2022/12/03 19:44:36;;;;;;;;;;;1.70;99.90;;;;;;8365103;28;19971;-79
2022/12/03 19:48:38;;;;;;;;;;;1.70;99.90;;;;;;8364602;28;20306;-79
2022/12/03 19:52:40;;;;;;;;;;;1.70;99.90;;;;;;8351749;28;19939;-79
2022/12/03 19:56:42;;;;;;;;;;;1.70;99.90;;;;;;8370238;28;19982;-78
2022/12/03 20:00:44;;;;;;;;;;;1.70;99.90;;;;;;8348421;28;19932;-78
2022/12/03 20:04:46;;;;;;;;;;;1.70;99.90;;;;;;8378266;28;20376;-78
2022/12/03 20:08:48;;;;;;;;;;;1.70;99.90;;;;;;8368576;28;19931;-78
2022/12/03 20:12:50;;;;;;;;;;;1.70;99.90;;;;;;8368550;28;19931;-77
2022/12/03 20:16:51;;;;;;;;;;;1.70;99.90;;;;;;8369805;28;20031;-77
2022/12/03 20:21:00;;;;;;;;;;;1.70;99.90;;;;;;8368011;28;19929;-77
2022/12/03 20:25:02;;;;;;;;;;;1.70;99.90;;;;;;8363128;28;19932;-77
2022/12/03 20:29:04;;;;;;;;;;;1.70;99.90;;;;;;8370790;28;20481;-79
2022/12/03 20:33:05;;;;;;;;;;;1.60;99.90;;;;;;8347637;28;19935;-78
2022/12/03 20:37:07;;;;;;;;;;;1.60;99.90;;;;;;8371144;28;20303;-78
2022/12/03 20:41:10;;;;;;;;;;;1.60;99.90;;;;;;8363389;28;19935;-78
2022/12/03 20:45:11;;;;;;;;;;;1.70;99.90;;;;;;8369048;28;19925;-78
2022/12/03 20:49:13;;;;;;;;;;;1.70;99.90;;;;;;8369048;28;20348;-78
2022/12/03 20:53:15;;;;;;;;;;;1.70;99.90;;;;;;8366314;28;19976;-79
2022/12/03 20:57:25;;;;;;;;;;;1.70;99.90;;;;;;8366232;28;19983;-78
2022/12/03 21:01:27;;;;;;;;;;;1.70;99.90;;;;;;8359960;28;19964;-78
2022/12/03 21:05:28;;;;;;;;;;;1.70;99.90;;;;;;8362284;28;19925;-78
2022/12/03 21:09:30;;;;;;;;;;;1.70;99.90;;;;;;8366405;28;19932;-78
2022/12/03 21:13:32;;;;;;;;;;;1.60;99.90;;;;;;8367266;28;19932;-78
2022/12/03 21:17:33;;;;;;;;;;;1.60;99.90;;;;;;8365190;28;19925;-78
2022/12/03 21:21:35;;;;;;;;;;;1.60;99.90;;;;;;8342307;28;19990;-78
2022/12/03 21:25:37;;;;;;;;;;;1.60;99.90;;;;;;8364471;28;19924;-79
2022/12/03 21:29:38;;;;;;;;;;;1.60;99.90;;;;;;8360966;28;20031;-78
2022/12/03 21:33:41;;;;;;;;;;;1.60;99.90;;;;;;8368772;28;21341;-78
2022/12/03 21:37:42;;;;;;;;;;;1.60;99.90;;;;;;8362349;28;20608;-78
2022/12/03 21:41:44;;;;;;;;;;;1.60;99.90;;;;;;8361224;28;20392;-78
2022/12/03 21:46:07;;;;;;;;;;;1.60;99.90;;;;;;8363838;28;19932;-78
2022/12/03 21:50:29;;;;;;;;;;;1.60;99.90;;;;;;8363409;28;19946;-78
2022/12/03 21:54:30;;;;;;;;;;;1.70;99.90;;;;;;8369209;28;19929;-78
2022/12/03 21:58:33;;;;;;;;;;;1.60;99.90;;;;;;8363470;28;20466;-79
2022/12/03 22:02:36;;;;;;;;;;;1.60;99.90;;;;;;8390970;28;19932;-79
2022/12/03 22:06:38;;;;;;;;;;;1.60;99.90;;;;;;8391519;28;20478;-79
2022/12/03 22:10:39;;;;;;;;;;;1.60;99.90;;;;;;8364494;28;19978;-78
2022/12/03 22:14:41;;;;;;;;;;;1.60;99.90;;;;;;8384696;28;20019;-79
2022/12/03 22:18:43;;;;;;;;;;;1.50;99.90;;;;;;8391653;28;20713;-78
2022/12/03 22:22:44;;;;;;;;;;;1.60;99.90;;;;;;8377286;28;19968;-78
2022/12/03 22:26:46;;;;;;;;;;;1.50;99.90;;;;;;8388800;28;20289;-78
2022/12/03 22:30:48;;;;;;;;;;;1.50;99.90;;;;;;8394002;28;19963;-78
2022/12/03 22:34:49;;;;;;;;;;;1.50;99.90;;;;;;8393261;28;20000;-78
2022/12/03 22:38:51;;;;;;;;;;;1.50;99.90;;;;;;8387360;28;20343;-78
2022/12/03 22:42:53;;;;;;;;;;;1.50;99.90;;;;;;8389635;28;19938;-78
2022/12/03 22:46:55;;;;;;;;;;;1.50;99.90;;;;;;8399359;28;19972;-78
2022/12/03 22:50:56;;;;;;;;;;;1.50;99.90;;;;;;8391610;28;19973;-78
2022/12/03 22:54:58;;;;;;;;;;;1.50;99.90;;;;;;8374088;28;19925;-78
2022/12/03 22:59:00;;;;;;;;;;;1.50;99.90;;;;;;8366656;28;19967;-78
2022/12/03 23:03:02;;;;;;;;;;;1.50;99.90;;;;;;8408727;28;19925;-78
2022/12/03 23:07:06;;;;;;;;;;;1.50;99.90;;;;;;8403685;28;19924;-78
2022/12/03 23:11:08;;;;;;;;;;;1.50;99.90;;;;;;8395403;28;20003;-78
2022/12/03 23:15:10;;;;;;;;;;;1.50;99.90;;;;;;8400173;28;19924;-78
2022/12/03 23:19:12;;;;;;;;;;;1.50;99.90;;;;;;8391164;28;19930;-79
2022/12/03 23:23:14;;;;;;;;;;;1.50;99.90;;;;;;8396605;28;20389;-78
2022/12/03 23:27:16;;;;;;;;;;;1.50;99.90;;;;;;8399166;28;19950;-78
2022/12/03 23:31:17;;;;;;;;;;;1.50;99.90;;;;;;8392795;28;19931;-79
2022/12/03 23:35:19;;;;;;;;;;;1.50;99.90;;;;;;8397947;28;19924;-78
2022/12/03 23:39:21;;;;;;;;;;;1.50;99.90;;;;;;8379660;28;19932;-78
2022/12/03 23:43:22;;;;;;;;;;;1.50;99.90;;;;;;8395246;28;19951;-78
2022/12/03 23:47:24;;;;;;;;;;;1.50;99.90;;;;;;8394224;28;19934;-78
2022/12/03 23:51:26;;;;;;;;;;;1.50;99.90;;;;;;8369466;28;19948;-78
2022/12/03 23:55:27;;;;;;;;;;;1.50;99.90;;;;;;8385258;28;20358;-78
2022/12/03 23:59:29;;;;;;;;;;;1.50;99.90;;;;;;8394178;28;19929;-78
